This is the latest recevied weather packets stored in our database for station/object VK3PBR-10. If no packets are shown the sender has not sent any weather packets the latest 10 day(s).
| Time | Temp. | Humidity | Pressure | Rain* | Wind** | Luminosity | Snow |
|---|---|---|---|---|---|---|---|
| 1787872598 | 18.33° C | 43% | 1031.7 hPa | - | - | - | - |
| 1787871698 | 18.33° C | 43% | 1031.6 hPa | - | - | - | - |
| 1787870798 | 20.56° C | 38% | 726.9 hPa | - | - | - | - |
| 1787869898 | 20.56° C | 39% | 1031.4 hPa | - | - | - | - |
| 1787868998 | 18.33° C | 43% | 1031.4 hPa | - | - | - | - |
| 1787868098 | 18.33° C | 44% | 1031.1 hPa | - | - | - | - |
| 1787867197 | 16.67° C | 48% | 1030.7 hPa | - | - | - | - |
| 1787866297 | 15.56° C | 52% | 1030.5 hPa | - | - | - | - |
| 1787865396 | 13.33° C | 58% | 1030.4 hPa | - | - | - | - |
| 1787864496 | 11.67° C | 61% | 1030.3 hPa | - | - | - | - |
| 1787863596 | 11.67° C | 61% | 1030.2 hPa | - | - | - | - |
| 1787862696 | 11.67° C | 61% | 1030 hPa | - | - | - | - |
| 1787861795 | 11.67° C | 61% | 1029.8 hPa | - | - | - | - |
| 1787860895 | 11.67° C | 60% | 1030 hPa | - | - | - | - |
| 1787859994 | 12.22° C | 59% | 1029.7 hPa | - | - | - | - |
| 1787859094 | 12.22° C | 59% | 1029.6 hPa | - | - | - | - |
| 1787858194 | 12.22° C | 58% | 1029.6 hPa | - | - | - | - |
| 1787857294 | 12.22° C | 58% | 1029.6 hPa | - | - | - | - |
| 1787856393 | 12.22° C | 59% | 1029.4 hPa | - | - | - | - |
| 1787855493 | 12.22° C | 58% | 1029.2 hPa | - | - | - | - |
| 1787854592 | 12.22° C | 59% | 1029.2 hPa | - | - | - | - |
| 1787853692 | 12.22° C | 59% | 1029.2 hPa | - | - | - | - |
| 1787852792 | 12.22° C | 58% | 1029.3 hPa | - | - | - | - |
| 1787851891 | 12.22° C | 58% | 1029.1 hPa | - | - | - | - |
| 1787850990 | 12.22° C | 58% | 1029.2 hPa | - | - | - | - |
* Rain since midnight (hover to see other rain measurements)
** Current wind speed in m/s (hover to see current wind gust speed)